createdAt,value
2019-03-18T00:01:48.928Z,43.03
2019-03-18T00:04:19.205Z,43.15
2019-03-18T00:06:49.469Z,43.17
2019-03-18T00:09:19.839Z,43.21
2019-03-18T00:11:50.161Z,43.16
2019-03-18T00:14:20.434Z,43.16
2019-03-18T00:16:50.765Z,43.12
2019-03-18T00:19:21.082Z,43.04
2019-03-18T00:21:51.424Z,43.02
2019-03-18T00:24:21.695Z,43.02
2019-03-18T00:26:51.976Z,43.02
2019-03-18T00:29:22.219Z,43.05
2019-03-18T00:31:52.521Z,43.03
2019-03-18T00:34:22.854Z,42.92
2019-03-18T00:36:53.133Z,42.88
2019-03-18T00:39:23.374Z,42.87
2019-03-18T00:41:53.869Z,43.01
2019-03-18T00:44:24.130Z,43.02
2019-03-18T00:46:54.444Z,43.02
2019-03-18T00:49:24.745Z,43.11
2019-03-18T00:51:55.084Z,43.00
2019-03-18T00:54:25.347Z,43.03
2019-03-18T00:56:55.564Z,43.02
2019-03-18T00:59:25.863Z,43.01
2019-03-18T01:01:56.182Z,43.03
2019-03-18T01:04:26.430Z,43.00
2019-03-18T01:06:56.728Z,43.05
2019-03-18T01:09:27.097Z,42.96
2019-03-18T01:11:57.377Z,43.05
2019-03-18T01:14:27.630Z,42.96
2019-03-18T01:16:59.107Z,43.07
2019-03-18T01:19:29.419Z,43.06
2019-03-18T01:21:59.752Z,42.98
2019-03-18T01:24:30.216Z,43.06
2019-03-18T01:27:00.509Z,42.94
2019-03-18T01:29:30.886Z,42.96
2019-03-18T01:32:01.128Z,42.78
2019-03-18T01:34:31.481Z,42.93
2019-03-18T01:37:03.005Z,42.97
2019-03-18T01:39:34.289Z,42.94
2019-03-18T01:42:04.702Z,42.93
2019-03-18T01:44:39.262Z,42.92
2019-03-18T01:47:11.157Z,42.99
2019-03-18T01:49:41.422Z,42.98
2019-03-18T01:52:11.768Z,42.94
2019-03-18T01:54:42.025Z,42.86
2019-03-18T01:57:12.380Z,42.82
2019-03-18T01:59:42.988Z,42.80
2019-03-18T02:02:15.645Z,43.01
2019-03-18T02:04:46.028Z,42.88
2019-03-18T02:07:16.394Z,42.79
2019-03-18T02:09:46.655Z,42.84
2019-03-18T02:12:16.920Z,42.94
2019-03-18T02:14:48.249Z,42.89
2019-03-18T02:17:18.577Z,42.87
2019-03-18T02:19:48.789Z,42.68
2019-03-18T02:22:19.074Z,42.82
2019-03-18T02:24:49.318Z,42.63
2019-03-18T02:27:19.597Z,42.78
2019-03-18T02:29:51.013Z,42.69
2019-03-18T02:32:21.268Z,42.57
2019-03-18T02:34:51.587Z,42.66
2019-03-18T02:37:21.833Z,42.60
2019-03-18T02:39:52.108Z,42.61
2019-03-18T02:42:22.520Z,42.56
2019-03-18T02:44:52.872Z,42.67
2019-03-18T02:47:23.226Z,42.68
2019-03-18T02:49:53.479Z,42.66
2019-03-18T02:52:23.844Z,42.68
2019-03-18T02:54:54.096Z,42.67
2019-03-18T02:57:24.372Z,42.63
2019-03-18T02:59:54.725Z,42.58
2019-03-18T03:02:25.139Z,42.66
2019-03-18T03:04:55.417Z,42.71
2019-03-18T03:07:25.724Z,42.60
2019-03-18T03:09:56.005Z,42.57
2019-03-18T03:12:27.345Z,42.71
2019-03-18T03:14:58.681Z,42.75
2019-03-18T03:17:28.960Z,42.68
2019-03-18T03:19:59.344Z,42.72
2019-03-18T03:22:29.655Z,42.70
2019-03-18T03:24:59.941Z,42.66
2019-03-18T03:27:30.245Z,42.65
2019-03-18T03:30:00.673Z,42.69
2019-03-18T03:32:31.008Z,42.69
2019-03-18T03:35:01.810Z,42.68
2019-03-18T03:37:33.195Z,42.72
2019-03-18T03:40:03.607Z,42.69
2019-03-18T03:42:35.553Z,42.68
2019-03-18T03:45:06.167Z,42.71
2019-03-18T03:47:36.487Z,42.68
2019-03-18T03:50:07.080Z,42.51
2019-03-18T03:52:37.407Z,42.68
2019-03-18T03:55:07.825Z,42.65
2019-03-18T03:57:38.200Z,42.49
2019-03-18T04:00:09.282Z,42.44
2019-03-18T04:02:39.652Z,42.78
2019-03-18T04:05:11.111Z,42.88
2019-03-18T04:07:41.458Z,42.92
2019-03-18T04:10:11.792Z,42.97
2019-03-18T04:12:42.205Z,42.79
2019-03-18T04:15:12.545Z,42.79
2019-03-18T04:17:42.883Z,42.82
2019-03-18T04:20:13.086Z,42.86
2019-03-18T04:22:43.420Z,42.87
2019-03-18T04:25:13.711Z,42.87
2019-03-18T04:27:44.055Z,42.83
2019-03-18T04:30:14.341Z,42.85
2019-03-18T04:32:44.646Z,42.78
2019-03-18T04:35:15.036Z,42.80
2019-03-18T04:37:46.180Z,42.86
2019-03-18T04:40:16.794Z,42.87
2019-03-18T04:42:49.367Z,42.75
2019-03-18T04:45:19.648Z,42.79
2019-03-18T04:47:50.059Z,42.85
2019-03-18T04:50:20.267Z,42.95
2019-03-18T04:52:50.691Z,42.82
2019-03-18T04:55:20.977Z,42.89
2019-03-18T04:57:51.460Z,42.79
2019-03-18T05:00:21.734Z,42.90
2019-03-18T05:02:51.952Z,42.66
2019-03-18T05:05:22.316Z,42.80
2019-03-18T05:07:54.106Z,42.85
2019-03-18T05:10:24.321Z,42.82
2019-03-18T05:12:54.561Z,42.82
2019-03-18T05:15:24.838Z,42.67
2019-03-18T05:17:55.052Z,42.62
2019-03-18T05:20:25.471Z,42.65
2019-03-18T05:22:55.771Z,42.76
2019-03-18T05:25:26.892Z,42.76
2019-03-18T05:27:57.313Z,42.62
2019-03-18T05:30:27.798Z,42.58
2019-03-18T05:32:58.103Z,42.56
2019-03-18T05:35:28.480Z,42.53
2019-03-18T05:37:59.747Z,42.58
2019-03-18T05:40:30.021Z,42.62
2019-03-18T05:43:00.362Z,42.51
2019-03-18T05:45:30.654Z,42.46
2019-03-18T05:48:01.120Z,42.48
2019-03-18T05:50:32.553Z,42.58
2019-03-18T05:53:02.830Z,42.53
2019-03-18T05:55:33.543Z,42.54
2019-03-18T05:58:03.858Z,42.60
2019-03-18T06:00:34.217Z,42.61
2019-03-18T06:03:04.639Z,42.64
2019-03-18T06:05:35.910Z,42.59
2019-03-18T06:08:06.315Z,42.58
2019-03-18T06:10:36.569Z,42.54
2019-03-18T06:13:06.895Z,42.53
2019-03-18T06:15:37.239Z,42.40
2019-03-18T06:18:07.472Z,42.38
2019-03-18T06:20:37.839Z,42.38
2019-03-18T06:23:08.219Z,42.34
2019-03-18T06:25:38.508Z,42.22
2019-03-18T06:28:08.960Z,42.25
2019-03-18T06:30:39.274Z,42.37
2019-03-18T06:33:09.542Z,42.34
2019-03-18T06:35:40.148Z,42.32
2019-03-18T06:38:10.474Z,42.35
2019-03-18T06:40:40.860Z,42.31
2019-03-18T06:43:11.090Z,42.28
2019-03-18T06:45:41.696Z,42.23
2019-03-18T06:48:11.956Z,42.16
2019-03-18T06:50:42.248Z,42.21
2019-03-18T06:53:13.154Z,42.15
2019-03-18T06:55:43.550Z,42.06
2019-03-18T06:58:13.893Z,42.06
2019-03-18T07:00:44.257Z,42.00
2019-03-18T07:03:14.557Z,41.91
2019-03-18T07:05:46.268Z,41.97
2019-03-18T07:08:16.610Z,41.86
2019-03-18T07:10:46.902Z,41.88
2019-03-18T07:13:17.138Z,41.95
2019-03-18T07:15:47.499Z,41.83
2019-03-18T07:18:18.939Z,41.79
2019-03-18T07:20:49.564Z,41.78
2019-03-18T07:23:19.909Z,41.70
2019-03-18T07:25:50.493Z,41.62
2019-03-18T07:28:20.772Z,41.57
2019-03-18T07:30:51.402Z,41.62
2019-03-18T07:33:21.725Z,41.64
2019-03-18T07:35:53.304Z,41.52
2019-03-18T07:38:23.547Z,41.50
2019-03-18T07:40:54.503Z,41.52
2019-03-18T07:43:25.809Z,41.53
2019-03-18T07:45:57.250Z,41.41
2019-03-18T07:48:31.273Z,41.36
2019-03-18T07:51:00.124Z,41.38
2019-03-18T07:53:30.406Z,41.40
2019-03-18T07:56:02.497Z,41.39
2019-03-18T07:58:32.767Z,41.37
2019-03-18T08:01:03.104Z,41.34
2019-03-18T08:03:36.438Z,41.34
2019-03-18T08:06:05.577Z,41.28
2019-03-18T08:08:36.107Z,41.24
2019-03-18T08:11:06.394Z,41.23
2019-03-18T08:13:36.728Z,41.19
2019-03-18T08:16:06.950Z,41.11
2019-03-18T08:18:43.168Z,41.04
2019-03-18T08:21:09.259Z,40.92
2019-03-18T08:23:39.592Z,40.57
2019-03-18T08:26:10.237Z,40.67
2019-03-18T08:28:40.561Z,40.64
2019-03-18T08:31:12.260Z,40.69
2019-03-18T08:33:42.602Z,40.80
2019-03-18T08:36:13.063Z,40.79
2019-03-18T08:38:43.306Z,40.75
2019-03-18T08:41:13.640Z,40.70
2019-03-18T08:43:44.037Z,40.70
2019-03-18T08:46:14.375Z,40.72
2019-03-18T08:48:55.412Z,40.65
2019-03-18T08:51:18.197Z,40.64
2019-03-18T08:53:48.527Z,40.65
2019-03-18T08:56:18.859Z,40.58
2019-03-18T08:58:49.152Z,40.65
2019-03-18T09:01:19.410Z,40.60
2019-03-18T09:03:49.952Z,40.64
2019-03-18T09:06:20.880Z,40.65
2019-03-18T09:08:51.196Z,40.63
2019-03-18T09:11:21.457Z,40.62
2019-03-18T09:13:51.741Z,40.56
2019-03-18T09:16:22.054Z,40.55
2019-03-18T09:18:53.101Z,40.58
2019-03-18T09:21:23.625Z,40.59
2019-03-18T09:23:53.947Z,40.60
2019-03-18T09:26:24.193Z,40.50
2019-03-18T09:28:54.507Z,40.38
2019-03-18T09:31:24.996Z,40.30
2019-03-18T09:33:55.236Z,39.98
2019-03-18T09:36:25.541Z,39.94
2019-03-18T09:38:55.917Z,40.04
2019-03-18T09:41:26.178Z,40.17
2019-03-18T09:43:56.601Z,40.10
2019-03-18T09:46:26.850Z,40.15
2019-03-18T09:48:58.235Z,40.16
2019-03-18T09:51:28.616Z,40.05
2019-03-18T09:53:58.983Z,40.07
2019-03-18T09:56:29.316Z,40.09
2019-03-18T09:58:59.828Z,39.99
2019-03-18T10:01:30.562Z,40.08
2019-03-18T10:04:00.782Z,40.07
2019-03-18T10:06:31.027Z,39.99
2019-03-18T10:09:01.358Z,39.93
2019-03-18T10:11:33.103Z,39.95
2019-03-18T10:14:03.447Z,39.84
2019-03-18T10:16:33.788Z,40.02
2019-03-18T10:19:04.228Z,39.92
2019-03-18T10:21:34.612Z,39.83
2019-03-18T10:24:04.923Z,39.90
2019-03-18T10:26:35.265Z,39.96
2019-03-18T10:29:05.545Z,40.01
2019-03-18T10:31:35.843Z,39.99
2019-03-18T10:34:06.161Z,40.05
2019-03-18T10:36:36.441Z,40.17
2019-03-18T10:39:08.290Z,40.20
2019-03-18T10:41:38.647Z,40.23
2019-03-18T10:44:08.993Z,40.25
2019-03-18T10:46:41.728Z,40.20
2019-03-18T10:49:12.090Z,40.33
2019-03-18T10:51:42.504Z,40.32
2019-03-18T10:54:12.867Z,40.35
2019-03-18T10:56:43.187Z,40.38
2019-03-18T10:59:13.544Z,40.38
2019-03-18T11:01:43.840Z,40.34
2019-03-18T11:04:14.065Z,40.32
2019-03-18T11:06:44.465Z,40.35
2019-03-18T11:09:15.673Z,40.36
2019-03-18T11:11:45.965Z,40.46
2019-03-18T11:14:16.265Z,40.42
2019-03-18T11:16:46.660Z,40.41
2019-03-18T11:19:16.987Z,40.46
2019-03-18T11:21:47.364Z,40.39
2019-03-18T11:24:17.619Z,40.37
2019-03-18T11:26:47.941Z,40.36
2019-03-18T11:29:18.178Z,40.42
2019-03-18T11:31:48.490Z,40.40
2019-03-18T11:34:19.159Z,40.33
2019-03-18T11:36:49.801Z,40.28
2019-03-18T11:39:20.142Z,40.30
2019-03-18T11:41:50.529Z,40.42
2019-03-18T11:44:20.767Z,40.40
2019-03-18T11:46:51.065Z,40.32
2019-03-18T11:49:21.358Z,40.35
2019-03-18T11:51:51.698Z,40.40
2019-03-18T11:54:22.115Z,40.38
2019-03-18T11:56:52.405Z,40.33
2019-03-18T11:59:22.723Z,40.34
2019-03-18T12:01:53.133Z,40.27
2019-03-18T12:04:24.498Z,40.33
2019-03-18T12:06:54.795Z,39.94
2019-03-18T12:09:25.102Z,39.20
2019-03-18T12:11:55.462Z,39.66
2019-03-18T12:14:25.743Z,39.94
2019-03-18T12:16:56.167Z,40.05
2019-03-18T12:19:26.473Z,39.72
2019-03-18T12:21:56.793Z,39.30
2019-03-18T12:24:27.052Z,38.99
2019-03-18T12:26:57.407Z,38.99
2019-03-18T12:29:27.653Z,38.63
2019-03-18T12:31:57.942Z,38.45
2019-03-18T12:34:28.221Z,38.48
2019-03-18T12:36:58.645Z,37.96
2019-03-18T12:39:29.000Z,37.95
2019-03-18T12:41:59.358Z,37.71
2019-03-18T12:44:30.613Z,38.06
2019-03-18T12:47:01.928Z,37.71
2019-03-18T12:49:32.425Z,37.26
2019-03-18T12:52:02.667Z,37.61
2019-03-18T12:54:32.907Z,37.93
2019-03-18T12:57:03.123Z,37.63
2019-03-18T12:59:33.410Z,37.57
2019-03-18T13:02:03.871Z,38.11
2019-03-18T13:04:34.352Z,38.26
2019-03-18T13:07:04.554Z,38.70
2019-03-18T13:09:34.957Z,38.95
2019-03-18T13:12:05.166Z,38.80
2019-03-18T13:14:35.442Z,38.80
2019-03-18T13:17:05.833Z,38.77
2019-03-18T13:19:36.188Z,38.85
2019-03-18T13:22:06.455Z,39.04
2019-03-18T13:24:36.717Z,39.01
2019-03-18T13:27:06.938Z,36.59
2019-03-18T13:29:37.230Z,38.25
2019-03-18T13:32:07.451Z,34.94
2019-03-18T13:34:37.676Z,34.90
2019-03-18T13:37:07.891Z,34.55
2019-03-18T13:39:38.073Z,36.95
2019-03-18T13:42:08.372Z,37.71
2019-03-18T13:44:39.171Z,38.00
2019-03-18T13:47:09.359Z,38.06
2019-03-18T13:49:39.597Z,38.08
2019-03-18T13:52:09.812Z,38.23
2019-03-18T13:54:40.812Z,38.21
2019-03-18T13:57:11.113Z,38.22
2019-03-18T13:59:41.434Z,38.22
2019-03-18T14:02:11.748Z,38.30
2019-03-18T14:04:42.093Z,38.32
2019-03-18T14:07:12.334Z,38.33
2019-03-18T14:09:42.543Z,38.42
2019-03-18T14:12:13.246Z,38.33
2019-03-18T14:14:43.473Z,38.40
2019-03-18T14:17:14.996Z,38.49
2019-03-18T14:19:45.344Z,38.48
2019-03-18T14:22:15.573Z,38.43
2019-03-18T14:24:46.102Z,38.47
2019-03-18T14:27:16.457Z,38.43
2019-03-18T14:29:46.715Z,38.06
2019-03-18T14:32:16.968Z,38.52
2019-03-18T14:34:47.201Z,37.18
2019-03-18T14:37:17.488Z,34.21
2019-03-18T14:39:47.811Z,33.64
2019-03-18T14:42:18.031Z,33.22
2019-03-18T14:44:48.259Z,34.43
2019-03-18T14:47:18.543Z,36.17
2019-03-18T14:49:48.871Z,37.30
2019-03-18T14:52:21.790Z,37.58
2019-03-18T14:54:52.045Z,37.48
2019-03-18T14:57:22.656Z,35.72
2019-03-18T14:59:55.431Z,34.80
2019-03-18T15:02:25.706Z,34.83
2019-03-18T15:04:55.990Z,35.99
2019-03-18T15:07:26.265Z,36.44
2019-03-18T15:09:57.599Z,36.88
2019-03-18T15:12:28.440Z,37.36
2019-03-18T15:14:58.797Z,37.54
2019-03-18T15:17:29.376Z,37.70
2019-03-18T15:20:02.074Z,37.79
2019-03-18T15:22:33.459Z,37.89
2019-03-18T15:25:03.784Z,37.98
2019-03-18T15:27:34.173Z,38.00
2019-03-18T15:30:04.878Z,37.95
2019-03-18T15:32:35.253Z,38.08
2019-03-18T15:35:05.678Z,38.19
2019-03-18T15:37:35.983Z,38.12
2019-03-18T15:40:06.594Z,38.31
2019-03-18T15:42:36.918Z,38.12
2019-03-18T15:45:07.775Z,38.24
2019-03-18T15:47:38.106Z,38.31
2019-03-18T15:50:12.821Z,38.18
2019-03-18T15:52:42.364Z,38.28
2019-03-18T15:55:12.712Z,38.33
2019-03-18T15:57:43.203Z,38.46
2019-03-18T16:00:15.377Z,38.41
2019-03-18T16:02:45.729Z,38.41
2019-03-18T16:05:16.046Z,38.45
2019-03-18T16:07:46.416Z,38.45
2019-03-18T16:10:16.839Z,38.45
2019-03-18T16:12:47.176Z,38.46
2019-03-18T16:15:18.622Z,38.52
2019-03-18T16:17:48.882Z,38.52
2019-03-18T16:20:19.213Z,38.55
2019-03-18T16:22:50.002Z,38.54
2019-03-18T16:25:20.288Z,38.57
2019-03-18T16:27:50.666Z,38.66
2019-03-18T16:30:21.033Z,38.55
2019-03-18T16:32:51.474Z,38.45
2019-03-18T16:35:22.424Z,38.63
2019-03-18T16:37:52.716Z,38.60
2019-03-18T16:40:22.983Z,38.53
2019-03-18T16:42:53.256Z,37.43
2019-03-18T16:45:23.687Z,38.13
2019-03-18T16:47:53.992Z,37.46
2019-03-18T16:50:24.312Z,35.73
2019-03-18T16:52:54.569Z,34.55
2019-03-18T16:55:24.859Z,34.35
2019-03-18T16:57:55.427Z,33.75
2019-03-18T17:00:25.669Z,33.63
2019-03-18T17:02:55.943Z,33.13
2019-03-18T17:05:27.309Z,33.42
2019-03-18T17:07:57.619Z,33.91
2019-03-18T17:10:28.283Z,35.65
2019-03-18T17:12:58.588Z,36.14
2019-03-18T17:15:28.955Z,36.13
2019-03-18T17:18:00.849Z,35.25
2019-03-18T17:20:31.273Z,34.14
2019-03-18T17:23:01.609Z,34.25
2019-03-18T17:25:31.908Z,35.01
2019-03-18T17:28:02.311Z,35.55
2019-03-18T17:30:32.627Z,36.43
2019-03-18T17:33:03.846Z,36.37
2019-03-18T17:35:35.431Z,36.66
2019-03-18T17:38:05.779Z,36.96
2019-03-18T17:40:36.682Z,36.84
2019-03-18T17:43:06.969Z,37.02
2019-03-18T17:45:39.268Z,36.96
2019-03-18T17:48:10.611Z,35.42
2019-03-18T17:50:39.360Z,35.20
2019-03-18T17:53:08.041Z,34.38
2019-03-18T17:55:38.834Z,34.11
2019-03-18T17:58:09.287Z,35.96
2019-03-18T18:00:43.049Z,36.27
2019-03-18T18:03:13.567Z,36.89
2019-03-18T18:05:43.872Z,37.01
2019-03-18T18:08:22.906Z,37.15
2019-03-18T18:10:53.879Z,37.25
2019-03-18T18:13:26.799Z,37.28
2019-03-18T18:16:00.028Z,37.28
2019-03-18T18:18:32.370Z,37.38
2019-03-18T18:21:07.604Z,37.53
2019-03-18T18:23:42.721Z,37.53
2019-03-18T18:29:18.310Z,37.51
2019-03-18T18:31:51.585Z,37.66
2019-03-18T18:34:22.128Z,37.87
2019-03-18T18:36:55.905Z,37.87
2019-03-18T18:39:27.300Z,38.06
2019-03-18T18:41:58.307Z,38.24
2019-03-18T18:44:28.650Z,38.29
2019-03-18T18:46:58.846Z,38.32
2019-03-18T18:49:32.251Z,38.30
2019-03-18T18:52:02.545Z,36.94
2019-03-18T18:54:32.969Z,35.77
2019-03-18T18:57:03.360Z,36.70
2019-03-18T18:59:36.229Z,37.25
2019-03-18T19:02:06.867Z,37.73
2019-03-18T19:04:38.003Z,37.82
2019-03-18T19:07:08.378Z,37.89
2019-03-18T19:09:42.192Z,37.94
2019-03-18T19:12:15.640Z,38.05
2019-03-18T19:14:46.080Z,38.14
2019-03-18T19:17:18.236Z,38.15
2019-03-18T19:19:48.705Z,38.24
2019-03-18T19:22:19.433Z,38.31
2019-03-18T19:24:51.829Z,38.53
2019-03-18T19:27:22.458Z,38.37
2019-03-18T19:29:54.537Z,38.43
2019-03-18T19:32:27.250Z,38.46
2019-03-18T19:34:57.517Z,38.49
2019-03-18T19:37:28.071Z,38.54
2019-03-18T19:39:58.405Z,38.50
2019-03-18T19:42:28.791Z,38.58
2019-03-18T19:45:00.374Z,38.56
2019-03-18T19:47:31.056Z,38.56
2019-03-18T19:50:01.463Z,38.59
2019-03-18T19:52:33.127Z,38.60
2019-03-18T19:55:06.942Z,38.74
2019-03-18T19:57:38.390Z,38.76
2019-03-18T20:00:12.332Z,38.79
2019-03-18T20:02:42.688Z,38.81
2019-03-18T20:05:15.736Z,38.83
2019-03-18T20:07:45.227Z,38.81
2019-03-18T20:10:15.556Z,38.84
2019-03-18T20:12:45.843Z,38.78
2019-03-18T20:15:16.223Z,38.79
2019-03-18T20:17:46.582Z,38.77
2019-03-18T20:20:18.075Z,38.88
2019-03-18T20:22:49.441Z,38.83
2019-03-18T20:25:19.952Z,38.81
2019-03-18T20:27:52.721Z,38.92
2019-03-18T20:30:22.993Z,38.93
2019-03-18T20:32:53.340Z,38.82
2019-03-18T20:35:23.691Z,38.89
2019-03-18T20:37:54.032Z,38.86
2019-03-18T20:40:24.316Z,38.89
2019-03-18T20:42:54.701Z,38.97
2019-03-18T20:45:25.233Z,39.03
2019-03-18T20:47:56.864Z,39.11
2019-03-18T20:50:27.399Z,38.07
2019-03-18T20:52:57.811Z,38.10
2019-03-18T20:55:28.280Z,38.54
2019-03-18T20:57:58.636Z,38.75
2019-03-18T21:00:30.123Z,38.82
2019-03-18T21:03:00.487Z,38.82
2019-03-18T21:05:31.788Z,38.89
2019-03-18T21:08:02.211Z,38.91
2019-03-18T21:10:32.899Z,38.88
2019-03-18T21:13:04.365Z,39.01
2019-03-18T21:15:35.633Z,39.04
2019-03-18T21:18:07.874Z,39.03
2019-03-18T21:20:38.322Z,36.60
2019-03-18T21:23:08.623Z,34.75
2019-03-18T21:25:39.223Z,35.83
2019-03-18T21:28:09.630Z,36.14
2019-03-18T21:30:40.226Z,36.41
2019-03-18T21:33:10.667Z,36.41
2019-03-18T21:35:41.112Z,36.59
2019-03-18T21:38:11.396Z,36.76
2019-03-18T21:40:41.689Z,36.86
2019-03-18T21:43:11.981Z,36.93
2019-03-18T21:45:42.810Z,37.34
2019-03-18T21:48:13.507Z,37.40
2019-03-18T21:50:43.868Z,37.47
2019-03-18T21:53:14.183Z,37.54
2019-03-18T21:55:44.427Z,37.68
2019-03-18T21:58:16.482Z,37.71
2019-03-18T22:00:47.403Z,37.39
2019-03-18T22:03:17.683Z,37.44
2019-03-18T22:05:48.028Z,38.03
2019-03-18T22:08:18.455Z,39.14
2019-03-18T22:10:49.089Z,39.53
2019-03-18T22:13:19.410Z,40.21
2019-03-18T22:15:49.810Z,40.93
2019-03-18T22:18:20.089Z,41.01
2019-03-18T22:20:50.424Z,41.16
2019-03-18T22:23:20.846Z,41.39
2019-03-18T22:25:51.223Z,41.36
2019-03-18T22:28:21.510Z,41.47
2019-03-18T22:30:54.133Z,41.51
2019-03-18T22:33:24.387Z,41.45
2019-03-18T22:35:54.769Z,41.49
2019-03-18T22:38:25.038Z,41.49
2019-03-18T22:40:55.388Z,41.51
2019-03-18T22:43:25.589Z,41.58
2019-03-18T22:45:55.821Z,41.49
2019-03-18T22:48:29.090Z,41.49
2019-03-18T22:50:59.449Z,41.55
2019-03-18T22:53:30.597Z,41.46
2019-03-18T22:56:00.968Z,41.50
2019-03-18T22:58:31.250Z,41.50
2019-03-18T23:03:45.505Z,41.55
2019-03-18T23:06:15.827Z,41.49
2019-03-18T23:08:48.717Z,41.37
2019-03-18T23:11:18.212Z,41.36
2019-03-18T23:13:48.486Z,41.46
2019-03-18T23:16:18.730Z,41.48
2019-03-18T23:18:49.164Z,41.46
2019-03-18T23:21:19.478Z,41.46
2019-03-18T23:23:49.814Z,41.39
2019-03-18T23:26:20.146Z,41.34
2019-03-18T23:28:50.535Z,41.35
2019-03-18T23:31:20.886Z,41.30
2019-03-18T23:33:51.415Z,41.27
2019-03-18T23:36:21.833Z,41.24
2019-03-18T23:38:52.110Z,41.29
2019-03-18T23:41:22.440Z,41.15
2019-03-18T23:43:52.797Z,41.16
2019-03-18T23:46:23.127Z,41.23
2019-03-18T23:48:53.501Z,41.15
2019-03-18T23:51:23.759Z,41.18
2019-03-18T23:53:54.089Z,41.22
2019-03-18T23:56:24.365Z,41.16
2019-03-18T23:58:54.710Z,41.11
